createdAt,value
2022-10-18T00:01:14.090Z,13.18
2022-10-18T00:06:14.458Z,12.63
2022-10-18T00:08:42.614Z,12.40
2022-10-18T00:11:10.831Z,11.55
2022-10-18T00:13:40.439Z,12.48
2022-10-18T00:16:14.732Z,12.23
2022-10-18T00:18:43.779Z,12.40
2022-10-18T00:21:14.934Z,13.18
2022-10-18T00:23:43.383Z,11.88
2022-10-18T00:26:13.838Z,11.57
2022-10-18T00:28:44.353Z,11.88
2022-10-18T00:31:15.271Z,11.25
2022-10-18T00:33:44.374Z,11.68
2022-10-18T00:36:12.860Z,12.32
2022-10-18T00:38:41.474Z,11.48
2022-10-18T00:41:11.671Z,11.68
2022-10-18T00:43:57.308Z,11.85
2022-10-18T00:46:28.300Z,11.30
2022-10-18T00:48:57.683Z,12.60
2022-10-18T00:51:29.299Z,11.48
2022-10-18T00:53:57.748Z,11.52
2022-10-18T00:56:26.226Z,12.50
2022-10-18T00:58:55.004Z,11.05
2022-10-18T01:01:27.597Z,11.85
2022-10-18T01:03:58.192Z,11.40
2022-10-18T01:06:28.266Z,11.25
2022-10-18T01:09:12.008Z,11.18
2022-10-18T01:11:54.416Z,11.25
2022-10-18T01:14:31.371Z,11.52
2022-10-18T01:17:05.024Z,12.02
2022-10-18T01:20:20.066Z,10.75
2022-10-18T01:22:53.800Z,10.43
2022-10-18T01:25:35.374Z,10.68
2022-10-18T01:28:14.397Z,11.23
2022-10-18T01:30:58.874Z,10.93
2022-10-18T01:33:37.660Z,9.88
2022-10-18T01:36:10.397Z,10.18
2022-10-18T01:38:40.266Z,11.35
2022-10-18T01:41:13.242Z,10.13
2022-10-18T01:43:46.228Z,10.23
2022-10-18T01:46:18.940Z,9.68
2022-10-18T01:48:50.993Z,8.80
2022-10-18T01:51:20.321Z,9.63
2022-10-18T01:53:48.580Z,9.45
2022-10-18T01:56:26.134Z,9.93
2022-10-18T01:59:12.194Z,9.93
2022-10-18T02:01:52.208Z,9.75
2022-10-18T02:04:30.694Z,8.90
2022-10-18T02:07:05.037Z,9.13
2022-10-18T02:09:39.697Z,9.55
2022-10-18T02:12:13.010Z,9.27
2022-10-18T02:14:43.104Z,9.55
2022-10-18T02:17:14.143Z,9.27
2022-10-18T02:19:45.500Z,8.57
2022-10-18T02:22:15.905Z,7.88
2022-10-18T02:24:47.843Z,7.93
2022-10-18T02:27:16.599Z,8.60
2022-10-18T02:29:46.648Z,8.75
2022-10-18T02:32:21.221Z,9.13
2022-10-18T02:34:55.190Z,8.75
2022-10-18T02:37:23.891Z,8.82
2022-10-18T02:39:53.053Z,8.38
2022-10-18T02:42:21.219Z,8.80
2022-10-18T02:44:49.376Z,8.25
2022-10-18T02:47:19.065Z,8.70
2022-10-18T02:49:47.254Z,8.20
2022-10-18T02:52:15.434Z,8.35
2022-10-18T02:54:43.579Z,9.18
2022-10-18T02:57:11.725Z,9.13
2022-10-18T02:59:40.024Z,8.60
2022-10-18T03:02:08.157Z,9.15
2022-10-18T03:04:37.796Z,9.30
2022-10-18T03:07:06.134Z,9.57
2022-10-18T03:09:34.369Z,7.35
2022-10-18T03:12:02.589Z,8.93
2022-10-18T03:14:30.866Z,8.98
2022-10-18T03:16:59.116Z,8.50
2022-10-18T03:19:27.386Z,7.45
2022-10-18T03:21:57.004Z,7.97
2022-10-18T03:24:25.286Z,8.23
2022-10-18T03:26:53.437Z,8.02
2022-10-18T03:29:21.591Z,8.38
2022-10-18T03:31:49.847Z,8.45
2022-10-18T03:34:18.139Z,7.95
2022-10-18T03:36:46.325Z,8.70
2022-10-18T03:39:16.046Z,9.00
2022-10-18T03:41:44.216Z,8.00
2022-10-18T03:44:12.387Z,9.00
2022-10-18T03:46:40.569Z,8.38
2022-10-18T03:49:08.748Z,7.85
2022-10-18T03:51:36.906Z,8.25
2022-10-18T03:54:05.360Z,8.18
2022-10-18T03:56:34.968Z,8.68
2022-10-18T03:59:04.560Z,8.27
2022-10-18T04:01:32.962Z,9.57
2022-10-18T04:04:01.211Z,7.85
2022-10-18T04:06:29.376Z,8.05
2022-10-18T04:08:57.513Z,8.45
2022-10-18T04:11:25.766Z,8.25
2022-10-18T04:13:55.256Z,8.45
2022-10-18T04:16:23.683Z,8.68
2022-10-18T04:18:51.951Z,9.45
2022-10-18T04:21:20.248Z,8.75
2022-10-18T04:23:49.009Z,7.93
2022-10-18T04:26:17.638Z,8.15
2022-10-18T04:28:46.304Z,7.65
2022-10-18T04:31:15.898Z,7.95
2022-10-18T04:33:44.045Z,8.32
2022-10-18T04:36:12.189Z,8.60
2022-10-18T04:38:40.328Z,9.38
2022-10-18T04:41:08.475Z,8.48
2022-10-18T04:43:36.746Z,8.27
2022-10-18T04:46:05.030Z,8.75
2022-10-18T04:48:34.544Z,8.75
2022-10-18T04:51:02.717Z,8.27
2022-10-18T04:53:30.862Z,7.03
2022-10-18T04:55:59.026Z,8.30
2022-10-18T04:58:27.322Z,8.82
2022-10-18T05:00:55.529Z,9.00
2022-10-18T05:03:23.731Z,9.13
2022-10-18T05:06:01.871Z,7.85
2022-10-18T05:08:31.954Z,8.75
2022-10-18T05:11:00.887Z,7.82
2022-10-18T05:13:29.460Z,8.77
2022-10-18T05:15:59.454Z,8.40
2022-10-18T05:18:27.790Z,9.15
2022-10-18T05:20:57.343Z,9.02
2022-10-18T05:23:25.527Z,9.02
2022-10-18T05:25:53.785Z,8.98
2022-10-18T05:31:12.510Z,8.25
2022-10-18T05:33:40.658Z,8.40
2022-10-18T05:36:10.724Z,8.52
2022-10-18T05:38:42.280Z,9.27
2022-10-18T05:41:10.773Z,8.77
2022-10-18T05:43:39.105Z,8.45
2022-10-18T05:46:13.580Z,8.68
2022-10-18T05:48:43.334Z,8.77
2022-10-18T05:51:12.976Z,8.70
2022-10-18T05:53:41.125Z,9.23
2022-10-18T05:56:11.860Z,8.93
2022-10-18T05:58:40.732Z,9.30
2022-10-18T06:01:10.148Z,8.93
2022-10-18T06:03:38.578Z,8.43
2022-10-18T06:06:09.343Z,8.80
2022-10-18T06:08:39.873Z,9.43
2022-10-18T06:11:08.996Z,9.02
2022-10-18T06:13:41.333Z,9.05
2022-10-18T06:16:10.167Z,9.40
2022-10-18T06:18:38.580Z,8.80
2022-10-18T06:21:07.082Z,8.60
2022-10-18T06:23:35.877Z,9.52
2022-10-18T06:26:07.275Z,8.35
2022-10-18T06:28:36.661Z,8.50
2022-10-18T06:31:06.126Z,9.45
2022-10-18T06:33:35.769Z,9.35
2022-10-18T06:36:06.737Z,9.50
2022-10-18T06:38:35.802Z,8.77
2022-10-18T06:41:06.453Z,8.88
2022-10-18T06:43:34.694Z,8.45
2022-10-18T06:46:04.782Z,8.18
2022-10-18T06:48:33.000Z,9.75
2022-10-18T06:51:03.308Z,7.78
2022-10-18T06:53:32.973Z,8.77
2022-10-18T06:56:02.119Z,8.73
2022-10-18T06:58:32.442Z,8.32
2022-10-18T07:01:00.754Z,8.90
2022-10-18T07:03:29.480Z,8.30
2022-10-18T07:06:02.123Z,8.82
2022-10-18T07:08:30.931Z,9.20
2022-10-18T07:10:59.399Z,9.52
2022-10-18T07:13:33.022Z,8.18
2022-10-18T07:16:05.740Z,9.02
2022-10-18T07:18:35.153Z,8.50
2022-10-18T07:21:04.807Z,8.90
2022-10-18T07:23:34.433Z,8.75
2022-10-18T07:26:02.863Z,8.25
2022-10-18T07:28:31.109Z,9.40
2022-10-18T07:31:06.172Z,8.82
2022-10-18T07:33:36.025Z,8.95
2022-10-18T07:36:05.108Z,8.75
2022-10-18T07:38:33.608Z,8.85
2022-10-18T07:41:02.466Z,10.02
2022-10-18T07:43:31.145Z,9.32
2022-10-18T07:46:00.885Z,9.07
2022-10-18T07:48:29.467Z,8.48
2022-10-18T07:51:01.672Z,10.15
2022-10-18T07:53:30.373Z,9.48
2022-10-18T07:56:01.492Z,9.63
2022-10-18T07:58:32.795Z,9.45
2022-10-18T08:01:04.373Z,9.07
2022-10-18T08:03:32.710Z,9.07
2022-10-18T08:06:05.720Z,9.15
2022-10-18T08:08:33.867Z,8.38
2022-10-18T08:11:04.465Z,9.75
2022-10-18T08:13:32.926Z,9.50
2022-10-18T08:16:01.651Z,8.88
2022-10-18T08:18:30.289Z,9.88
2022-10-18T08:21:02.055Z,9.63
2022-10-18T08:23:30.231Z,9.52
2022-10-18T08:26:01.684Z,9.60
2022-10-18T08:28:29.954Z,10.15
2022-10-18T08:30:58.190Z,9.02
2022-10-18T08:33:26.389Z,9.25
2022-10-18T08:35:58.425Z,9.90
2022-10-18T08:38:30.282Z,10.68
2022-10-18T08:41:00.517Z,9.57
2022-10-18T08:46:04.662Z,10.07
2022-10-18T08:48:36.633Z,9.88
2022-10-18T08:51:06.760Z,9.75
2022-10-18T08:53:45.370Z,10.73
2022-10-18T08:56:15.625Z,11.07
2022-10-18T08:58:44.981Z,10.85
2022-10-18T09:01:23.586Z,11.70
2022-10-18T09:04:05.050Z,10.32
2022-10-18T09:06:40.253Z,11.32
2022-10-18T09:09:25.718Z,10.07
2022-10-18T09:12:09.630Z,11.15
2022-10-18T09:15:10.127Z,11.00
2022-10-18T09:17:48.936Z,10.93
2022-10-18T09:20:23.954Z,11.38
2022-10-18T09:22:57.736Z,10.70
2022-10-18T09:25:34.310Z,10.43
2022-10-18T09:28:16.895Z,10.98
2022-10-18T09:30:59.801Z,12.43
2022-10-18T09:33:38.327Z,13.20
2022-10-18T09:36:09.522Z,13.20
2022-10-18T09:38:44.440Z,11.50
2022-10-18T09:41:19.432Z,12.90
2022-10-18T09:43:55.585Z,13.13
2022-10-18T09:46:27.838Z,13.57
2022-10-18T09:49:00.545Z,13.77
2022-10-18T09:51:34.758Z,14.00
2022-10-18T09:54:12.107Z,14.02
2022-10-18T09:56:47.757Z,14.07
2022-10-18T09:59:32.965Z,13.50
2022-10-18T10:02:01.265Z,14.02
2022-10-18T10:04:29.677Z,14.38
2022-10-18T10:07:00.602Z,14.15
2022-10-18T10:09:30.798Z,14.88
2022-10-18T10:12:00.448Z,13.10
2022-10-18T10:14:30.823Z,13.65
2022-10-18T10:17:02.365Z,13.95
2022-10-18T10:19:34.166Z,13.70
2022-10-18T10:22:06.825Z,13.77
2022-10-18T10:24:49.575Z,13.45
2022-10-18T10:27:31.917Z,13.48
2022-10-18T10:30:05.773Z,12.93
2022-10-18T10:32:47.629Z,12.35
2022-10-18T10:35:41.343Z,12.95
2022-10-18T10:38:25.424Z,12.60
2022-10-18T10:40:53.896Z,13.05
2022-10-18T10:43:42.546Z,13.40
2022-10-18T10:46:13.080Z,13.07
2022-10-18T10:48:48.236Z,13.45
2022-10-18T10:51:19.570Z,13.57
2022-10-18T10:53:52.303Z,14.95
2022-10-18T10:56:26.684Z,13.57
2022-10-18T10:58:59.009Z,13.82
2022-10-18T11:01:32.631Z,13.68
2022-10-18T11:04:03.403Z,13.95
2022-10-18T11:06:53.324Z,13.55
2022-10-18T11:09:45.233Z,13.02
2022-10-18T11:12:34.484Z,13.88
2022-10-18T11:15:21.672Z,13.88
2022-10-18T11:18:03.670Z,14.32
2022-10-18T11:20:36.544Z,13.30
2022-10-18T11:23:08.383Z,12.23
2022-10-18T11:25:55.724Z,13.10
2022-10-18T11:28:39.648Z,13.75
2022-10-18T11:31:20.012Z,13.77
2022-10-18T11:34:09.097Z,12.82
2022-10-18T11:36:54.999Z,12.93
2022-10-18T11:39:47.732Z,12.40
2022-10-18T11:42:27.676Z,12.45
2022-10-18T11:45:05.074Z,12.43
2022-10-18T11:47:41.997Z,14.10
2022-10-18T11:50:20.575Z,12.63
2022-10-18T11:53:01.383Z,12.50
2022-10-18T11:55:50.237Z,12.80
2022-10-18T11:58:37.047Z,12.82
2022-10-18T12:01:12.942Z,12.40
2022-10-18T12:03:57.528Z,12.70
2022-10-18T12:06:30.766Z,12.98
2022-10-18T12:09:02.661Z,12.13
2022-10-18T12:11:33.667Z,13.43
2022-10-18T12:14:04.068Z,13.68
2022-10-18T12:16:50.407Z,12.52
2022-10-18T12:19:26.673Z,13.98
2022-10-18T12:21:58.209Z,12.88
2022-10-18T12:24:30.049Z,12.90
2022-10-18T12:27:01.025Z,13.20
2022-10-18T12:29:36.800Z,14.18
2022-10-18T12:32:11.630Z,15.02
2022-10-18T12:34:45.001Z,12.80
2022-10-18T12:37:28.057Z,14.20
2022-10-18T12:40:18.766Z,13.95
2022-10-18T12:42:51.426Z,14.45
2022-10-18T12:45:26.145Z,13.85
2022-10-18T12:47:55.400Z,13.43
2022-10-18T12:50:44.043Z,14.65
2022-10-18T12:53:19.944Z,13.32
2022-10-18T12:55:51.630Z,15.52
2022-10-18T12:58:37.870Z,14.32
2022-10-18T13:01:08.118Z,15.20
2022-10-18T13:03:59.435Z,14.80
2022-10-18T13:07:03.811Z,14.57
2022-10-18T13:09:35.882Z,15.85
2022-10-18T13:12:57.891Z,15.07
2022-10-18T13:15:40.097Z,15.77
2022-10-18T13:18:19.597Z,16.70
2022-10-18T13:20:58.517Z,15.82
2022-10-18T13:23:38.767Z,15.30
2022-10-18T13:26:19.953Z,17.98
2022-10-18T13:28:55.301Z,18.40
2022-10-18T13:31:31.230Z,18.00
2022-10-18T13:34:27.813Z,17.02
2022-10-18T13:37:02.209Z,18.33
2022-10-18T13:39:31.757Z,18.02
2022-10-18T13:42:31.698Z,16.85
2022-10-18T13:45:37.849Z,17.70
2022-10-18T13:48:44.008Z,17.35
2022-10-18T13:51:43.683Z,17.17
2022-10-18T13:54:40.724Z,18.00
2022-10-18T13:57:18.900Z,19.30
2022-10-18T14:00:05.288Z,18.30
2022-10-18T14:02:59.396Z,17.75
2022-10-18T14:05:57.928Z,18.08
2022-10-18T14:08:30.724Z,18.77
2022-10-18T14:11:06.316Z,17.55
2022-10-18T14:13:46.327Z,18.02
2022-10-18T14:16:31.617Z,17.90
2022-10-18T14:19:09.491Z,19.25
2022-10-18T14:21:41.198Z,18.33
2022-10-18T14:24:20.397Z,17.92
2022-10-18T14:26:48.855Z,18.08
2022-10-18T14:29:20.177Z,18.40
2022-10-18T14:31:56.360Z,18.48
2022-10-18T14:34:24.547Z,18.48
2022-10-18T14:36:53.070Z,16.67
2022-10-18T14:39:23.294Z,15.55
2022-10-18T14:41:53.197Z,12.75
2022-10-18T14:44:25.839Z,13.52
2022-10-18T14:47:01.947Z,12.35
2022-10-18T14:49:31.173Z,9.65
2022-10-18T14:52:01.448Z,8.05
2022-10-18T14:54:36.484Z,8.05
2022-10-18T14:57:05.908Z,7.65
2022-10-18T14:59:40.997Z,7.47
2022-10-18T15:02:17.251Z,6.60
2022-10-18T15:04:46.521Z,7.32
2022-10-18T15:07:17.793Z,7.15
2022-10-18T15:09:46.785Z,7.50
2022-10-18T15:12:16.528Z,7.38
2022-10-18T15:14:45.651Z,7.47
2022-10-18T15:17:21.619Z,8.68
2022-10-18T15:20:01.829Z,9.05
2022-10-18T15:22:34.394Z,8.85
2022-10-18T15:25:29.324Z,8.63
2022-10-18T15:28:01.677Z,10.32
2022-10-18T15:30:37.651Z,9.27
2022-10-18T15:33:10.149Z,9.20
2022-10-18T15:35:42.476Z,11.35
2022-10-18T15:38:16.790Z,10.80
2022-10-18T15:40:45.321Z,11.60
2022-10-18T15:43:40.183Z,15.20
2022-10-18T15:46:29.364Z,15.05
2022-10-18T15:49:17.545Z,16.58
2022-10-18T15:51:50.125Z,17.33
2022-10-18T15:54:31.341Z,18.45
2022-10-18T15:56:59.896Z,16.95
2022-10-18T15:59:32.145Z,18.17
2022-10-18T16:02:32.999Z,17.58
2022-10-18T16:05:29.821Z,14.20
2022-10-18T16:08:26.539Z,13.57
2022-10-18T16:11:18.917Z,14.73
2022-10-18T16:46:10.159Z,25.25
2022-10-18T16:49:37.084Z,24.85
2022-10-18T16:56:05.140Z,25.45
2022-10-18T16:58:44.345Z,26.73
2022-10-18T17:01:15.338Z,28.65
2022-10-18T17:03:52.103Z,27.63
2022-10-18T17:06:22.160Z,30.02
2022-10-18T17:08:50.931Z,30.55
2022-10-18T17:11:33.538Z,32.03
2022-10-18T17:14:03.998Z,35.17
2022-10-18T17:16:36.552Z,26.05
2022-10-18T17:19:08.470Z,20.17
2022-10-18T17:25:07.262Z,14.45
2022-10-18T17:27:56.231Z,14.30
2022-10-18T17:30:24.675Z,12.90
2022-10-18T17:36:51.641Z,13.18
2022-10-18T17:39:43.322Z,13.23
2022-10-18T17:42:14.154Z,14.75
2022-10-18T17:45:36.353Z,13.82
2022-10-18T17:48:07.497Z,14.18
2022-10-18T17:51:38.131Z,15.75
2022-10-18T17:54:08.729Z,15.77
2022-10-18T17:56:37.330Z,14.60
2022-10-18T17:59:07.320Z,12.43
2022-10-18T18:01:48.564Z,11.73
2022-10-18T18:04:17.226Z,11.07
2022-10-18T18:06:45.777Z,10.50
2022-10-18T18:09:17.410Z,10.45
2022-10-18T18:11:56.350Z,10.85
2022-10-18T18:14:33.462Z,9.60
2022-10-18T18:17:03.298Z,9.88
2022-10-18T18:19:32.223Z,9.60
2022-10-18T18:22:00.515Z,10.10
2022-10-18T18:24:30.238Z,10.00
2022-10-18T18:26:58.496Z,9.30
2022-10-18T18:29:29.324Z,10.00
2022-10-18T18:31:59.343Z,11.10
2022-10-18T18:34:27.768Z,10.02
2022-10-18T18:36:56.434Z,8.90
2022-10-18T18:39:26.174Z,8.45
2022-10-18T18:41:55.872Z,9.70
2022-10-18T18:44:25.184Z,9.68
2022-10-18T18:46:53.380Z,9.30
2022-10-18T18:49:21.731Z,8.48
2022-10-18T18:51:52.875Z,8.65
2022-10-18T18:54:22.136Z,10.23
2022-10-18T18:56:50.372Z,9.52
2022-10-18T18:59:32.228Z,8.98
2022-10-18T19:02:00.629Z,8.48
2022-10-18T19:04:29.382Z,8.77
2022-10-18T19:06:57.576Z,8.20
2022-10-18T19:09:39.140Z,8.80
2022-10-18T19:12:20.532Z,8.52
2022-10-18T19:14:51.331Z,7.97
2022-10-18T19:17:21.742Z,8.32
2022-10-18T19:19:52.859Z,9.35
2022-10-18T19:22:21.186Z,8.70
2022-10-18T19:28:40.189Z,9.60
2022-10-18T19:31:10.395Z,9.82
2022-10-18T19:33:48.149Z,10.90
2022-10-18T19:36:17.110Z,10.45
2022-10-18T19:38:45.622Z,10.63
2022-10-18T19:43:54.071Z,10.88
2022-10-18T19:46:24.042Z,10.93
2022-10-18T19:48:54.172Z,11.27
2022-10-18T19:52:14.676Z,11.23
2022-10-18T19:58:14.059Z,12.93
2022-10-18T20:00:42.621Z,10.57
2022-10-18T20:03:36.548Z,10.10
2022-10-18T20:06:17.416Z,9.65
2022-10-18T20:08:56.798Z,10.65
2022-10-18T20:11:27.148Z,10.95
2022-10-18T20:14:07.709Z,10.93
2022-10-18T20:16:36.518Z,9.90
2022-10-18T20:19:28.085Z,10.68
2022-10-18T20:21:59.665Z,10.50
2022-10-18T20:24:55.925Z,11.82
2022-10-18T20:27:24.688Z,9.77
2022-10-18T20:29:53.175Z,11.32
2022-10-18T20:32:21.399Z,9.70
2022-10-18T20:35:09.669Z,11.48
2022-10-18T20:37:38.496Z,10.65
2022-10-18T20:40:07.528Z,12.10
2022-10-18T20:42:35.931Z,11.43
2022-10-18T20:45:12.740Z,10.95
2022-10-18T20:47:41.186Z,11.43
2022-10-18T20:50:12.300Z,11.75
2022-10-18T20:52:51.647Z,10.82
2022-10-18T20:55:30.573Z,10.15
2022-10-18T20:57:59.992Z,12.05
2022-10-18T21:00:28.605Z,12.60
2022-10-18T21:03:00.938Z,11.95
2022-10-18T21:05:32.334Z,13.75
2022-10-18T21:08:01.437Z,14.65
2022-10-18T21:10:29.805Z,15.88
2022-10-18T21:13:08.046Z,16.65
2022-10-18T21:15:36.485Z,17.98
2022-10-18T21:18:05.224Z,17.77
2022-10-18T21:20:34.919Z,17.55
2022-10-18T21:23:03.236Z,18.55
2022-10-18T21:25:31.522Z,17.63
2022-10-18T21:28:02.096Z,18.15
2022-10-18T21:30:30.381Z,19.52
2022-10-18T21:32:58.608Z,20.25
2022-10-18T21:35:37.702Z,21.55
2022-10-18T21:38:07.676Z,20.77
2022-10-18T21:40:39.621Z,21.25
2022-10-18T21:43:10.586Z,21.50
2022-10-18T21:45:47.058Z,20.65
2022-10-18T21:48:15.375Z,22.20
2022-10-18T21:50:45.027Z,23.23
2022-10-18T21:53:16.035Z,22.33
2022-10-18T21:55:44.302Z,23.10
2022-10-18T21:58:14.475Z,22.77
2022-10-18T22:00:42.691Z,24.17
2022-10-18T22:03:12.206Z,23.35
2022-10-18T22:05:43.374Z,24.38
2022-10-18T22:08:13.020Z,24.38
2022-10-18T22:10:41.197Z,22.90
2022-10-18T22:13:09.424Z,23.50
2022-10-18T22:15:37.711Z,25.13
2022-10-18T22:18:05.916Z,23.90
2022-10-18T22:20:34.077Z,24.50
2022-10-18T22:23:02.767Z,23.73
2022-10-18T22:25:32.292Z,27.05
2022-10-18T22:28:00.491Z,23.40
2022-10-18T22:30:28.760Z,25.55
2022-10-18T22:32:58.993Z,26.55
2022-10-18T22:35:27.198Z,26.63
2022-10-18T22:37:55.572Z,27.35
2022-10-18T22:40:23.724Z,28.08
2022-10-18T22:42:54.500Z,26.77
2022-10-18T22:45:22.702Z,27.55
2022-10-18T22:47:50.874Z,27.08
2022-10-18T22:50:19.216Z,28.38
2022-10-18T22:52:48.955Z,27.00
2022-10-18T22:55:18.784Z,27.95
2022-10-18T22:57:46.923Z,27.02
2022-10-18T23:00:17.115Z,28.67
2022-10-18T23:02:45.342Z,27.75
2022-10-18T23:05:13.601Z,26.83
2022-10-18T23:07:41.770Z,27.67
2022-10-18T23:10:10.454Z,27.13
2022-10-18T23:12:38.712Z,28.48
2022-10-18T23:15:07.771Z,28.35
2022-10-18T23:17:37.560Z,27.55
2022-10-18T23:20:06.433Z,30.50
2022-10-18T23:22:34.803Z,28.35
2022-10-18T23:25:03.217Z,28.27
2022-10-18T23:27:31.391Z,27.92
2022-10-18T23:29:59.643Z,27.40
2022-10-18T23:32:28.497Z,27.83
2022-10-18T23:34:58.195Z,27.45
2022-10-18T23:37:26.513Z,25.95
2022-10-18T23:39:57.623Z,25.20
2022-10-18T23:42:25.813Z,25.63
2022-10-18T23:44:53.978Z,24.25
2022-10-18T23:47:22.259Z,23.95
2022-10-18T23:49:50.413Z,23.60
2022-10-18T23:52:20.077Z,21.80
2022-10-18T23:54:48.797Z,23.80
2022-10-18T23:57:16.992Z,21.40
2022-10-18T23:59:45.233Z,21.08
